KLOT/LOT METAR and TAF weather

Enter ICAO airport designator
Station Type Date Time Source
KLOT METAR 2020/11/28 20:15 UTC NOAA

KLOT 282015Z AUTO 22009KT 10SM CLR 09/02 A3008 RMK AO2 T00900023


Station Type Date Time Source
KLOT Decoded METAR 2020/11/28 20:15 UTC NOAA

Chicago/Romeoville, Lewis University Airport, IL, United States (KLOT) 41-36-30N 088-05-39W
Nov 28, 2020 - 03:15 PM EST / 2020.11.28 2015 UTC
Wind: from the SW (220 degrees) at 10 MPH (9 KT):0
Visibility: 10 mile(s):0
Sky conditions: clear
Temperature: 48.2 F (9.0 C)
Dew Point: 36.1 F (2.3 C)
Relative Humidity: 62%
Pressure (altimeter): 30.08 in. Hg (1018 hPa)
ob: KLOT 282015Z AUTO 22009KT 10SM CLR 09/02 A3008 RMK AO2 T00900023
cycle: 20

Station Type Date Time Source
KLOT TAF UTC NOAA

Error!

Example: see airport list